sensor_id;sensor_type;location;lat;lon;timestamp;temperature;humidity
69990;DHT22;57331;52.054;5.294;2023-06-22T00:00:03;18.80;58.00
69990;DHT22;57331;52.054;5.294;2023-06-22T00:02:37;21.10;59.40
69990;DHT22;57331;52.054;5.294;2023-06-22T00:07:32;18.30;58.10
69990;DHT22;57331;52.054;5.294;2023-06-22T00:12:26;19.50;59.00
69990;DHT22;57331;52.054;5.294;2023-06-22T00:14:53;20.90;59.90
69990;DHT22;57331;52.054;5.294;2023-06-22T00:17:20;19.80;59.50
69990;DHT22;57331;52.054;5.294;2023-06-22T00:19:47;19.90;59.60
69990;DHT22;57331;52.054;5.294;2023-06-22T00:22:14;19.10;57.60
69990;DHT22;57331;52.054;5.294;2023-06-22T00:24:43;18.60;59.20
69990;DHT22;57331;52.054;5.294;2023-06-22T00:27:10;18.40;59.30
69990;DHT22;57331;52.054;5.294;2023-06-22T00:29:37;18.40;59.40
69990;DHT22;57331;52.054;5.294;2023-06-22T00:32:04;19.70;60.20
69990;DHT22;57331;52.054;5.294;2023-06-22T00:41:53;18.00;59.70
69990;DHT22;57331;52.054;5.294;2023-06-22T00:44:21;18.70;60.20
69990;DHT22;57331;52.054;5.294;2023-06-22T00:49:17;18.10;60.00
69990;DHT22;57331;52.054;5.294;2023-06-22T00:54:12;17.80;60.20
69990;DHT22;57331;52.054;5.294;2023-06-22T00:56:42;17.70;51.30
69990;DHT22;57331;52.054;5.294;2023-06-22T00:59:10;18.00;60.60
69990;DHT22;57331;52.054;5.294;2023-06-22T01:01:40;17.90;60.70
69990;DHT22;57331;52.054;5.294;2023-06-22T01:04:08;17.80;60.70
69990;DHT22;57331;52.054;5.294;2023-06-22T01:07:09;20.20;62.10
69990;DHT22;57331;52.054;5.294;2023-06-22T01:09:56;19.90;62.30
69990;DHT22;57331;52.054;5.294;2023-06-22T01:12:25;17.60;61.00
69990;DHT22;57331;52.054;5.294;2023-06-22T01:15:06;18.60;48.40
69990;DHT22;57331;52.054;5.294;2023-06-22T01:17:35;19.50;56.30
69990;DHT22;57331;52.054;5.294;2023-06-22T01:20:04;18.50;55.10
69990;DHT22;57331;52.054;5.294;2023-06-22T01:22:40;19.80;52.50
69990;DHT22;57331;52.054;5.294;2023-06-22T01:25:11;19.70;63.00
69990;DHT22;57331;52.054;5.294;2023-06-22T01:33:05;17.50;62.40
69990;DHT22;57331;52.054;5.294;2023-06-22T01:35:33;17.50;62.50
69990;DHT22;57331;52.054;5.294;2023-06-22T01:40:28;17.30;56.70
69990;DHT22;57331;52.054;5.294;2023-06-22T01:42:57;16.80;62.30
69990;DHT22;57331;52.054;5.294;2023-06-22T01:45:24;16.90;62.40
69990;DHT22;57331;52.054;5.294;2023-06-22T01:47:52;18.10;63.20
69990;DHT22;57331;52.054;5.294;2023-06-22T01:52:46;16.90;62.90
69990;DHT22;57331;52.054;5.294;2023-06-22T01:57:40;17.50;63.30
69990;DHT22;57331;52.054;5.294;2023-06-22T02:00:11;18.00;50.00
69990;DHT22;57331;52.054;5.294;2023-06-22T02:03:11;16.90;63.20
69990;DHT22;57331;52.054;5.294;2023-06-22T02:05:47;17.90;50.30
69990;DHT22;57331;52.054;5.294;2023-06-22T02:08:20;17.50;63.90
69990;DHT22;57331;52.054;5.294;2023-06-22T02:10:49;17.10;63.60
69990;DHT22;57331;52.054;5.294;2023-06-22T02:13:17;19.00;64.70
69990;DHT22;57331;52.054;5.294;2023-06-22T02:15:45;16.70;63.70
69990;DHT22;57331;52.054;5.294;2023-06-22T02:18:13;21.60;54.20
69990;DHT22;57331;52.054;5.294;2023-06-22T02:23:09;17.60;50.70
69990;DHT22;57331;52.054;5.294;2023-06-22T02:30:31;17.20;64.40
69990;DHT22;57331;52.054;5.294;2023-06-22T02:35:27;16.70;64.50
69990;DHT22;57331;52.054;5.294;2023-06-22T02:37:59;17.60;51.20
69990;DHT22;57331;52.054;5.294;2023-06-22T02:40:27;18.40;65.50
69990;DHT22;57331;52.054;5.294;2023-06-22T02:47:52;18.80;65.90
69990;DHT22;57331;52.054;5.294;2023-06-22T02:50:19;18.40;65.80
69990;DHT22;57331;52.054;5.294;2023-06-22T02:52:46;16.90;65.10
69990;DHT22;57331;52.054;5.294;2023-06-22T02:55:13;17.40;65.60
69990;DHT22;57331;52.054;5.294;2023-06-22T02:57:44;17.60;65.10
69990;DHT22;57331;52.054;5.294;2023-06-22T03:00:13;17.00;65.60
69990;DHT22;57331;52.054;5.294;2023-06-22T03:02:47;18.00;66.10
69990;DHT22;57331;52.054;5.294;2023-06-22T03:07:45;18.40;66.40
69990;DHT22;57331;52.054;5.294;2023-06-22T03:10:13;17.20;52.10
69990;DHT22;57331;52.054;5.294;2023-06-22T03:12:42;16.50;65.60
69990;DHT22;57331;52.054;5.294;2023-06-22T03:15:11;16.20;65.40
69990;DHT22;57331;52.054;5.294;2023-06-22T03:17:39;17.20;52.10
69990;DHT22;57331;52.054;5.294;2023-06-22T03:20:09;17.10;52.10
69990;DHT22;57331;52.054;5.294;2023-06-22T03:22:41;15.90;51.20
69990;DHT22;57331;52.054;5.294;2023-06-22T03:25:09;15.80;65.40
69990;DHT22;57331;52.054;5.294;2023-06-22T03:30:08;15.80;65.70
69990;DHT22;57331;52.054;5.294;2023-06-22T03:37:35;17.60;67.00
69990;DHT22;57331;52.054;5.294;2023-06-22T03:40:02;15.70;65.40
69990;DHT22;57331;52.054;5.294;2023-06-22T03:42:35;16.80;52.90
69990;DHT22;57331;52.054;5.294;2023-06-22T03:45:03;17.20;57.00
69990;DHT22;57331;52.054;5.294;2023-06-22T03:49:58;18.20;67.80
69990;DHT22;57331;52.054;5.294;2023-06-22T03:52:25;18.30;68.10
69990;DHT22;57331;52.054;5.294;2023-06-22T03:54:52;17.20;67.60
69990;DHT22;57331;52.054;5.294;2023-06-22T04:04:41;17.40;66.80
69990;DHT22;57331;52.054;5.294;2023-06-22T04:12:03;17.60;68.30
69990;DHT22;57331;52.054;5.294;2023-06-22T04:14:30;17.60;68.40
69990;DHT22;57331;52.054;5.294;2023-06-22T04:16:57;17.00;54.10
69990;DHT22;57331;52.054;5.294;2023-06-22T04:19:24;18.40;68.80
69990;DHT22;57331;52.054;5.294;2023-06-22T04:24:19;16.60;64.30
69990;DHT22;57331;52.054;5.294;2023-06-22T04:34:08;17.10;63.50
69990;DHT22;57331;52.054;5.294;2023-06-22T04:36:40;16.60;68.10
69990;DHT22;57331;52.054;5.294;2023-06-22T04:39:09;17.40;54.60
69990;DHT22;57331;52.054;5.294;2023-06-22T04:41:37;16.40;67.80
69990;DHT22;57331;52.054;5.294;2023-06-22T04:44:14;16.70;67.90
69990;DHT22;57331;52.054;5.294;2023-06-22T04:46:52;17.50;54.50
69990;DHT22;57331;52.054;5.294;2023-06-22T04:52:06;18.70;68.80
69990;DHT22;57331;52.054;5.294;2023-06-22T04:54:35;17.70;54.40
69990;DHT22;57331;52.054;5.294;2023-06-22T04:57:05;17.90;54.40
69990;DHT22;57331;52.054;5.294;2023-06-22T04:59:37;17.90;54.40
69990;DHT22;57331;52.054;5.294;2023-06-22T05:02:06;17.20;65.50
69990;DHT22;57331;52.054;5.294;2023-06-22T05:07:03;16.80;67.00
69990;DHT22;57331;52.054;5.294;2023-06-22T05:09:30;18.10;67.50
69990;DHT22;57331;52.054;5.294;2023-06-22T05:11:57;17.00;66.80
69990;DHT22;57331;52.054;5.294;2023-06-22T05:16:51;18.00;67.10
69990;DHT22;57331;52.054;5.294;2023-06-22T05:19:19;19.60;67.70
69990;DHT22;57331;52.054;5.294;2023-06-22T05:21:45;17.80;66.90
69990;DHT22;57331;52.054;5.294;2023-06-22T05:24:13;18.60;67.00
69990;DHT22;57331;52.054;5.294;2023-06-22T05:26:39;19.00;67.30
69990;DHT22;57331;52.054;5.294;2023-06-22T05:31:34;18.00;66.70
69990;DHT22;57331;52.054;5.294;2023-06-22T05:36:29;17.50;66.30
69990;DHT22;57331;52.054;5.294;2023-06-22T05:38:56;18.90;54.00
69990;DHT22;57331;52.054;5.294;2023-06-22T05:41:24;20.50;67.80
69990;DHT22;57331;52.054;5.294;2023-06-22T05:43:50;20.40;67.60
69990;DHT22;57331;52.054;5.294;2023-06-22T05:46:19;19.10;54.00
69990;DHT22;57331;52.054;5.294;2023-06-22T05:51:13;18.60;66.30
69990;DHT22;57331;52.054;5.294;2023-06-22T05:56:08;18.40;65.90
69990;DHT22;57331;52.054;5.294;2023-06-22T05:58:35;18.50;65.50
69990;DHT22;57331;52.054;5.294;2023-06-22T06:01:02;20.30;66.20
69990;DHT22;57331;52.054;5.294;2023-06-22T06:03:29;21.40;66.70
69990;DHT22;57331;52.054;5.294;2023-06-22T06:10:50;20.90;65.80
69990;DHT22;57331;52.054;5.294;2023-06-22T06:23:09;19.70;63.40
69990;DHT22;57331;52.054;5.294;2023-06-22T06:28:03;21.10;63.50
69990;DHT22;57331;52.054;5.294;2023-06-22T06:35:27;20.40;61.80
69990;DHT22;57331;52.054;5.294;2023-06-22T06:37:54;20.90;61.30
69990;DHT22;57331;52.054;5.294;2023-06-22T06:42:49;23.50;61.80
69990;DHT22;57331;52.054;5.294;2023-06-22T06:45:18;22.20;48.90
69990;DHT22;57331;52.054;5.294;2023-06-22T06:47:46;22.30;60.20
69990;DHT22;57331;52.054;5.294;2023-06-22T06:52:41;23.80;60.20
69990;DHT22;57331;52.054;5.294;2023-06-22T06:55:09;21.10;46.40
69990;DHT22;57331;52.054;5.294;2023-06-22T06:57:40;23.60;52.20
69990;DHT22;57331;52.054;5.294;2023-06-22T07:00:11;22.60;46.40
69990;DHT22;57331;52.054;5.294;2023-06-22T07:02:43;21.20;57.00
69990;DHT22;57331;52.054;5.294;2023-06-22T07:05:12;22.70;45.90
69990;DHT22;57331;52.054;5.294;2023-06-22T07:10:08;23.20;45.70
69990;DHT22;57331;52.054;5.294;2023-06-22T07:12:36;23.10;56.60
69990;DHT22;57331;52.054;5.294;2023-06-22T07:15:07;21.50;47.80
69990;DHT22;57331;52.054;5.294;2023-06-22T07:17:35;22.30;44.60
69990;DHT22;57331;52.054;5.294;2023-06-22T07:20:03;22.20;55.40
69990;DHT22;57331;52.054;5.294;2023-06-22T07:22:39;22.20;55.00
69990;DHT22;57331;52.054;5.294;2023-06-22T07:25:07;23.80;55.30
69990;DHT22;57331;52.054;5.294;2023-06-22T07:27:38;23.40;43.90
69990;DHT22;57331;52.054;5.294;2023-06-22T07:30:09;24.20;54.80
69990;DHT22;57331;52.054;5.294;2023-06-22T07:32:37;23.70;54.40
69990;DHT22;57331;52.054;5.294;2023-06-22T07:35:04;23.90;54.30
69990;DHT22;57331;52.054;5.294;2023-06-22T07:42:31;23.40;52.80
69990;DHT22;57331;52.054;5.294;2023-06-22T07:45:00;25.30;45.80
69990;DHT22;57331;52.054;5.294;2023-06-22T07:47:27;25.00;52.70
69990;DHT22;57331;52.054;5.294;2023-06-22T07:49:57;25.30;52.50
69990;DHT22;57331;52.054;5.294;2023-06-22T07:59:47;23.20;49.00
69990;DHT22;57331;52.054;5.294;2023-06-22T08:02:14;23.30;48.40
69990;DHT22;57331;52.054;5.294;2023-06-22T08:04:41;26.10;49.10
69990;DHT22;57331;52.054;5.294;2023-06-22T08:12:03;26.10;47.10
69990;DHT22;57331;52.054;5.294;2023-06-22T08:14:31;25.00;46.60
69990;DHT22;57331;52.054;5.294;2023-06-22T08:16:58;25.30;36.70
69990;DHT22;57331;52.054;5.294;2023-06-22T08:19:24;25.20;46.50
69990;DHT22;57331;52.054;5.294;2023-06-22T08:21:51;26.30;45.60
69990;DHT22;57331;52.054;5.294;2023-06-22T08:24:18;24.50;42.70
69990;DHT22;57331;52.054;5.294;2023-06-22T08:26:45;26.10;44.60
69990;DHT22;57331;52.054;5.294;2023-06-22T08:29:12;26.20;44.10
69990;DHT22;57331;52.054;5.294;2023-06-22T08:31:39;24.50;41.30
69990;DHT22;57331;52.054;5.294;2023-06-22T08:34:06;25.50;41.40
69990;DHT22;57331;52.054;5.294;2023-06-22T08:36:33;25.00;41.90
69990;DHT22;57331;52.054;5.294;2023-06-22T08:39:08;25.20;41.20
69990;DHT22;57331;52.054;5.294;2023-06-22T08:41:35;26.30;41.70
69990;DHT22;57331;52.054;5.294;2023-06-22T08:44:02;24.90;41.20
69990;DHT22;57331;52.054;5.294;2023-06-22T08:46:29;27.40;42.90
69990;DHT22;57331;52.054;5.294;2023-06-22T08:49:00;27.00;42.00
69990;DHT22;57331;52.054;5.294;2023-06-22T08:51:27;25.00;39.50
69990;DHT22;57331;52.054;5.294;2023-06-22T08:53:55;26.50;31.50
69990;DHT22;57331;52.054;5.294;2023-06-22T08:56:22;26.70;30.80
69990;DHT22;57331;52.054;5.294;2023-06-22T08:58:49;26.70;30.30
69990;DHT22;57331;52.054;5.294;2023-06-22T09:01:16;25.90;37.80
69990;DHT22;57331;52.054;5.294;2023-06-22T09:03:43;25.30;36.80
69990;DHT22;57331;52.054;5.294;2023-06-22T09:06:10;26.30;37.80
69990;DHT22;57331;52.054;5.294;2023-06-22T09:08:37;25.40;36.40
69990;DHT22;57331;52.054;5.294;2023-06-22T09:11:04;26.70;38.60
69990;DHT22;57331;52.054;5.294;2023-06-22T09:13:32;26.30;37.50
69990;DHT22;57331;52.054;5.294;2023-06-22T09:15:59;26.90;29.30
69990;DHT22;57331;52.054;5.294;2023-06-22T09:18:26;27.60;38.00
69990;DHT22;57331;52.054;5.294;2023-06-22T09:20:53;27.10;29.20
69990;DHT22;57331;52.054;5.294;2023-06-22T09:23:20;27.80;38.20
69990;DHT22;57331;52.054;5.294;2023-06-22T09:25:47;26.00;35.50
69990;DHT22;57331;52.054;5.294;2023-06-22T09:28:15;27.20;28.20
69990;DHT22;57331;52.054;5.294;2023-06-22T09:30:45;27.20;27.90
69990;DHT22;57331;52.054;5.294;2023-06-22T09:33:12;27.20;27.40
69990;DHT22;57331;52.054;5.294;2023-06-22T09:35:39;26.70;35.00
69990;DHT22;57331;52.054;5.294;2023-06-22T09:38:06;27.20;27.30
69990;DHT22;57331;52.054;5.294;2023-06-22T09:40:33;26.90;33.70
69990;DHT22;57331;52.054;5.294;2023-06-22T09:43:06;27.60;33.70
69990;DHT22;57331;52.054;5.294;2023-06-22T09:45:33;27.50;34.00
69990;DHT22;57331;52.054;5.294;2023-06-22T09:48:00;27.50;25.60
69990;DHT22;57331;52.054;5.294;2023-06-22T09:50:27;27.00;32.90
69990;DHT22;57331;52.054;5.294;2023-06-22T09:52:54;27.40;25.90
69990;DHT22;57331;52.054;5.294;2023-06-22T09:57:49;27.20;32.60
69990;DHT22;57331;52.054;5.294;2023-06-22T10:00:17;27.40;25.50
69990;DHT22;57331;52.054;5.294;2023-06-22T10:02:46;27.40;25.30
69990;DHT22;57331;52.054;5.294;2023-06-22T10:05:13;28.10;33.50
69990;DHT22;57331;52.054;5.294;2023-06-22T10:07:41;27.20;25.30
69990;DHT22;57331;52.054;5.294;2023-06-22T10:10:11;27.20;25.10
69990;DHT22;57331;52.054;5.294;2023-06-22T10:12:45;27.00;24.80
69990;DHT22;57331;52.054;5.294;2023-06-22T10:15:13;27.00;33.20
69990;DHT22;57331;52.054;5.294;2023-06-22T10:17:40;27.90;33.40
69990;DHT22;57331;52.054;5.294;2023-06-22T10:20:08;26.70;25.20
69990;DHT22;57331;52.054;5.294;2023-06-22T10:22:43;26.60;25.30
69990;DHT22;57331;52.054;5.294;2023-06-22T10:25:12;27.50;33.10
69990;DHT22;57331;52.054;5.294;2023-06-22T10:27:39;26.40;25.40
69990;DHT22;57331;52.054;5.294;2023-06-22T10:30:10;26.40;25.50
69990;DHT22;57331;52.054;5.294;2023-06-22T10:32:41;26.20;25.50
69990;DHT22;57331;52.054;5.294;2023-06-22T10:35:08;26.80;35.00
69990;DHT22;57331;52.054;5.294;2023-06-22T10:37:37;26.10;26.00
69990;DHT22;57331;52.054;5.294;2023-06-22T10:40:05;26.10;34.80
69990;DHT22;57331;52.054;5.294;2023-06-22T10:42:32;24.50;33.50
69990;DHT22;57331;52.054;5.294;2023-06-22T10:44:59;27.20;35.70
69990;DHT22;57331;52.054;5.294;2023-06-22T10:47:26;25.70;35.70
69990;DHT22;57331;52.054;5.294;2023-06-22T10:49:53;26.30;35.60
69990;DHT22;57331;52.054;5.294;2023-06-22T10:52:20;26.10;26.80
69990;DHT22;57331;52.054;5.294;2023-06-22T10:54:47;26.00;35.70
69990;DHT22;57331;52.054;5.294;2023-06-22T10:57:14;26.10;26.80
69990;DHT22;57331;52.054;5.294;2023-06-22T10:59:41;27.00;35.60
69990;DHT22;57331;52.054;5.294;2023-06-22T11:02:08;27.40;34.90
69990;DHT22;57331;52.054;5.294;2023-06-22T11:04:35;25.90;34.20
69990;DHT22;57331;52.054;5.294;2023-06-22T11:07:02;24.70;33.00
69990;DHT22;57331;52.054;5.294;2023-06-22T11:09:29;25.70;34.20
69990;DHT22;57331;52.054;5.294;2023-06-22T11:11:56;26.20;35.60
69990;DHT22;57331;52.054;5.294;2023-06-22T11:14:26;26.20;26.20
69990;DHT22;57331;52.054;5.294;2023-06-22T11:16:52;26.20;26.40
69990;DHT22;57331;52.054;5.294;2023-06-22T11:19:19;27.00;36.50
69990;DHT22;57331;52.054;5.294;2023-06-22T11:21:46;26.20;26.50
69990;DHT22;57331;52.054;5.294;2023-06-22T11:24:13;26.20;26.50
69990;DHT22;57331;52.054;5.294;2023-06-22T11:26:40;27.00;34.90
69990;DHT22;57331;52.054;5.294;2023-06-22T11:29:07;27.00;36.10
69990;DHT22;57331;52.054;5.294;2023-06-22T11:31:40;26.50;35.10
69990;DHT22;57331;52.054;5.294;2023-06-22T11:34:07;25.60;33.90
69990;DHT22;57331;52.054;5.294;2023-06-22T11:36:34;26.60;26.70
69990;DHT22;57331;52.054;5.294;2023-06-22T11:39:02;26.70;26.70
69990;DHT22;57331;52.054;5.294;2023-06-22T11:41:34;26.80;26.30
69990;DHT22;57331;52.054;5.294;2023-06-22T11:44:01;25.90;33.30
69990;DHT22;57331;52.054;5.294;2023-06-22T11:46:28;28.00;36.00
69990;DHT22;57331;52.054;5.294;2023-06-22T11:48:55;27.00;35.10
69990;DHT22;57331;52.054;5.294;2023-06-22T11:51:22;27.00;26.60
69990;DHT22;57331;52.054;5.294;2023-06-22T11:53:48;27.10;26.80
69990;DHT22;57331;52.054;5.294;2023-06-22T11:56:15;27.00;35.70
69990;DHT22;57331;52.054;5.294;2023-06-22T11:58:42;26.90;37.00
69990;DHT22;57331;52.054;5.294;2023-06-22T12:01:09;27.10;27.70
69990;DHT22;57331;52.054;5.294;2023-06-22T12:03:36;27.10;27.90
69990;DHT22;57331;52.054;5.294;2023-06-22T12:06:03;26.00;36.70
69990;DHT22;57331;52.054;5.294;2023-06-22T12:08:30;27.10;28.00
69990;DHT22;57331;52.054;5.294;2023-06-22T12:10:57;27.10;27.90
69990;DHT22;57331;52.054;5.294;2023-06-22T12:13:24;26.70;37.70
69990;DHT22;57331;52.054;5.294;2023-06-22T12:15:51;27.00;28.20
69990;DHT22;57331;52.054;5.294;2023-06-22T12:18:19;26.70;37.50
69990;DHT22;57331;52.054;5.294;2023-06-22T12:20:48;26.10;37.20
69990;DHT22;57331;52.054;5.294;2023-06-22T12:23:15;28.10;38.40
69990;DHT22;57331;52.054;5.294;2023-06-22T12:25:42;26.70;28.60
69990;DHT22;57331;52.054;5.294;2023-06-22T12:28:09;27.10;38.80
69990;DHT22;57331;52.054;5.294;2023-06-22T12:30:36;26.70;40.20
69990;DHT22;57331;52.054;5.294;2023-06-22T12:33:03;26.40;40.80
69990;DHT22;57331;52.054;5.294;2023-06-22T12:35:30;25.10;40.20
69990;DHT22;57331;52.054;5.294;2023-06-22T12:37:57;26.30;31.60
69990;DHT22;57331;52.054;5.294;2023-06-22T12:40:24;24.70;41.50
69990;DHT22;57331;52.054;5.294;2023-06-22T12:42:51;24.50;41.20
69990;DHT22;57331;52.054;5.294;2023-06-22T12:45:18;26.60;43.90
69990;DHT22;57331;52.054;5.294;2023-06-22T12:47:47;26.80;45.30
69990;DHT22;57331;52.054;5.294;2023-06-22T12:50:13;24.40;43.90
69990;DHT22;57331;52.054;5.294;2023-06-22T12:52:40;25.50;45.20
69990;DHT22;57331;52.054;5.294;2023-06-22T12:55:08;26.50;46.40
69990;DHT22;57331;52.054;5.294;2023-06-22T12:57:35;23.80;45.50
69990;DHT22;57331;52.054;5.294;2023-06-22T13:00:02;25.90;47.40
69990;DHT22;57331;52.054;5.294;2023-06-22T13:02:31;25.70;48.20
69990;DHT22;57331;52.054;5.294;2023-06-22T13:09:53;25.30;49.40
69990;DHT22;57331;52.054;5.294;2023-06-22T13:12:20;24.60;39.30
69990;DHT22;57331;52.054;5.294;2023-06-22T13:14:48;24.60;39.60
69990;DHT22;57331;52.054;5.294;2023-06-22T13:19:43;25.90;51.40
69990;DHT22;57331;52.054;5.294;2023-06-22T13:22:31;25.90;52.10
69990;DHT22;57331;52.054;5.294;2023-06-22T13:24:59;25.40;52.00
69990;DHT22;57331;52.054;5.294;2023-06-22T13:27:26;25.60;52.50
69990;DHT22;57331;52.054;5.294;2023-06-22T13:29:53;24.50;52.30
69990;DHT22;57331;52.054;5.294;2023-06-22T13:32:20;22.80;51.70
69990;DHT22;57331;52.054;5.294;2023-06-22T13:42:09;25.20;55.30
69990;DHT22;57331;52.054;5.294;2023-06-22T13:44:36;25.30;56.20
69990;DHT22;57331;52.054;5.294;2023-06-22T13:47:03;23.70;55.70
69990;DHT22;57331;52.054;5.294;2023-06-22T13:49:31;22.90;55.70
69990;DHT22;57331;52.054;5.294;2023-06-22T13:51:59;24.00;46.10
69990;DHT22;57331;52.054;5.294;2023-06-22T13:54:26;24.10;56.40
69990;DHT22;57331;52.054;5.294;2023-06-22T13:56:56;25.40;57.50
69990;DHT22;57331;52.054;5.294;2023-06-22T14:01:50;23.60;56.80
69990;DHT22;57331;52.054;5.294;2023-06-22T14:04:17;25.50;58.20
69990;DHT22;57331;52.054;5.294;2023-06-22T14:06:44;25.50;58.30
69990;DHT22;57331;52.054;5.294;2023-06-22T14:09:11;23.30;57.00
69990;DHT22;57331;52.054;5.294;2023-06-22T14:14:05;24.40;58.40
69990;DHT22;57331;52.054;5.294;2023-06-22T14:19:00;23.90;58.40
69990;DHT22;57331;52.054;5.294;2023-06-22T14:21:27;24.60;58.80
69990;DHT22;57331;52.054;5.294;2023-06-22T14:23:54;25.70;59.50
69990;DHT22;57331;52.054;5.294;2023-06-22T14:26:21;23.10;58.20
69990;DHT22;57331;52.054;5.294;2023-06-22T14:28:49;25.50;51.40
69990;DHT22;57331;52.054;5.294;2023-06-22T14:31:19;22.90;58.40
69990;DHT22;57331;52.054;5.294;2023-06-22T14:33:47;24.20;49.00
69990;DHT22;57331;52.054;5.294;2023-06-22T14:36:15;22.80;58.60
69990;DHT22;57331;52.054;5.294;2023-06-22T14:38:43;25.20;55.50
69990;DHT22;57331;52.054;5.294;2023-06-22T14:41:10;22.50;59.10
69990;DHT22;57331;52.054;5.294;2023-06-22T14:43:48;22.70;59.50
69990;DHT22;57331;52.054;5.294;2023-06-22T14:46:17;22.40;59.60
69990;DHT22;57331;52.054;5.294;2023-06-22T14:51:12;24.50;61.50
69990;DHT22;57331;52.054;5.294;2023-06-22T14:53:46;23.50;50.20
69990;DHT22;57331;52.054;5.294;2023-06-22T15:01:13;21.90;60.60
69990;DHT22;57331;52.054;5.294;2023-06-22T15:03:40;22.70;60.60
69990;DHT22;57331;52.054;5.294;2023-06-22T15:06:08;21.80;57.50
69990;DHT22;57331;52.054;5.294;2023-06-22T15:08:37;22.90;51.20
69990;DHT22;57331;52.054;5.294;2023-06-22T15:11:05;21.80;62.00
69990;DHT22;57331;52.054;5.294;2023-06-22T15:13:32;23.80;63.20
69990;DHT22;57331;52.054;5.294;2023-06-22T15:16:04;23.90;63.60
69990;DHT22;57331;52.054;5.294;2023-06-22T15:18:31;23.20;63.50
69990;DHT22;57331;52.054;5.294;2023-06-22T15:21:03;21.50;62.90
69990;DHT22;57331;52.054;5.294;2023-06-22T15:23:31;22.60;52.70
69990;DHT22;57331;52.054;5.294;2023-06-22T15:26:03;21.60;63.30
69990;DHT22;57331;52.054;5.294;2023-06-22T15:28:33;21.50;58.20
69990;DHT22;57331;52.054;5.294;2023-06-22T15:31:02;23.70;65.00
69990;DHT22;57331;52.054;5.294;2023-06-22T15:33:29;23.80;65.10
69990;DHT22;57331;52.054;5.294;2023-06-22T15:35:58;21.50;64.00
69990;DHT22;57331;52.054;5.294;2023-06-22T15:40:58;22.50;65.00
69990;DHT22;57331;52.054;5.294;2023-06-22T15:43:25;23.00;65.10
69990;DHT22;57331;52.054;5.294;2023-06-22T15:45:52;21.00;64.20
69990;DHT22;57331;52.054;5.294;2023-06-22T15:48:21;22.80;65.40
69990;DHT22;57331;52.054;5.294;2023-06-22T15:50:48;21.70;58.40
69990;DHT22;57331;52.054;5.294;2023-06-22T15:53:15;23.60;66.00
69990;DHT22;57331;52.054;5.294;2023-06-22T15:55:42;20.90;64.70
69990;DHT22;57331;52.054;5.294;2023-06-22T16:00:39;22.10;65.70
69990;DHT22;57331;52.054;5.294;2023-06-22T16:03:06;22.40;66.00
69990;DHT22;57331;52.054;5.294;2023-06-22T16:10:28;23.20;63.90
69990;DHT22;57331;52.054;5.294;2023-06-22T16:15:23;21.70;66.50
69990;DHT22;57331;52.054;5.294;2023-06-22T16:17:50;20.70;66.30
69990;DHT22;57331;52.054;5.294;2023-06-22T16:20:17;22.00;67.00
69990;DHT22;57331;52.054;5.294;2023-06-22T16:22:44;20.90;66.60
69990;DHT22;57331;52.054;5.294;2023-06-22T16:25:13;21.60;67.10
69990;DHT22;57331;52.054;5.294;2023-06-22T16:27:40;21.40;67.20
69990;DHT22;57331;52.054;5.294;2023-06-22T16:30:07;20.60;66.70
69990;DHT22;57331;52.054;5.294;2023-06-22T16:32:35;21.40;67.50
69990;DHT22;57331;52.054;5.294;2023-06-22T16:35:02;22.30;68.20
69990;DHT22;57331;52.054;5.294;2023-06-22T16:42:24;22.60;68.90
69990;DHT22;57331;52.054;5.294;2023-06-22T16:44:51;21.10;61.20
69990;DHT22;57331;52.054;5.294;2023-06-22T16:47:18;21.20;68.60
69990;DHT22;57331;52.054;5.294;2023-06-22T16:52:12;22.70;67.60
69990;DHT22;57331;52.054;5.294;2023-06-22T17:02:23;22.80;70.60
69990;DHT22;57331;52.054;5.294;2023-06-22T17:04:54;21.50;58.60
69990;DHT22;57331;52.054;5.294;2023-06-22T17:07:25;20.70;69.70
69990;DHT22;57331;52.054;5.294;2023-06-22T17:09:53;21.60;70.20
69990;DHT22;57331;52.054;5.294;2023-06-22T17:14:51;21.40;59.10
69990;DHT22;57331;52.054;5.294;2023-06-22T17:19:48;21.60;63.50
69990;DHT22;57331;52.054;5.294;2023-06-22T17:22:15;20.10;70.00
69990;DHT22;57331;52.054;5.294;2023-06-22T17:24:43;21.40;71.00
69990;DHT22;57331;52.054;5.294;2023-06-22T17:32:05;19.90;70.90
69990;DHT22;57331;52.054;5.294;2023-06-22T17:34:32;19.90;70.40
69990;DHT22;57331;52.054;5.294;2023-06-22T17:39:27;19.90;68.00
69990;DHT22;57331;52.054;5.294;2023-06-22T17:44:26;19.80;67.70
69990;DHT22;57331;52.054;5.294;2023-06-22T17:46:57;21.90;72.80
69990;DHT22;57331;52.054;5.294;2023-06-22T17:49:31;20.80;72.50
69990;DHT22;57331;52.054;5.294;2023-06-22T17:54:31;20.30;65.40
69990;DHT22;57331;52.054;5.294;2023-06-22T17:59:29;21.20;61.60
69990;DHT22;57331;52.054;5.294;2023-06-22T18:01:56;20.70;73.00
69990;DHT22;57331;52.054;5.294;2023-06-22T18:04:23;22.50;73.90
69990;DHT22;57331;52.054;5.294;2023-06-22T18:06:52;21.40;73.30
69990;DHT22;57331;52.054;5.294;2023-06-22T18:11:49;22.50;73.80
69990;DHT22;57331;52.054;5.294;2023-06-22T18:14:17;21.10;61.70
69990;DHT22;57331;52.054;5.294;2023-06-22T18:16:46;20.70;73.20
69990;DHT22;57331;52.054;5.294;2023-06-22T18:19:14;22.40;74.30
69990;DHT22;57331;52.054;5.294;2023-06-22T18:21:44;21.00;62.00
69990;DHT22;57331;52.054;5.294;2023-06-22T18:24:13;21.60;74.20
69990;DHT22;57331;52.054;5.294;2023-06-22T18:26:40;21.00;62.40
69990;DHT22;57331;52.054;5.294;2023-06-22T18:29:09;21.00;62.50
69990;DHT22;57331;52.054;5.294;2023-06-22T18:31:36;22.00;69.60
69990;DHT22;57331;52.054;5.294;2023-06-22T18:34:06;19.70;73.70
69990;DHT22;57331;52.054;5.294;2023-06-22T18:36:48;20.90;74.50
69990;DHT22;57331;52.054;5.294;2023-06-22T18:39:17;21.50;66.70
69990;DHT22;57331;52.054;5.294;2023-06-22T18:41:52;22.00;75.30
69990;DHT22;57331;52.054;5.294;2023-06-22T18:44:28;21.20;74.70
69990;DHT22;57331;52.054;5.294;2023-06-22T18:46:59;21.10;63.20
69990;DHT22;57331;52.054;5.294;2023-06-22T18:49:33;22.40;75.40
69990;DHT22;57331;52.054;5.294;2023-06-22T18:54:43;22.00;75.50
69990;DHT22;57331;52.054;5.294;2023-06-22T19:02:33;22.20;69.10
69990;DHT22;57331;52.054;5.294;2023-06-22T19:18:24;20.00;74.80
69990;DHT22;57331;52.054;5.294;2023-06-22T19:21:21;20.80;75.60
69990;DHT22;57331;52.054;5.294;2023-06-22T19:26:18;19.80;75.60
69990;DHT22;57331;52.054;5.294;2023-06-22T19:28:53;21.50;76.50
69990;DHT22;57331;52.054;5.294;2023-06-22T19:31:22;20.20;63.80
69990;DHT22;57331;52.054;5.294;2023-06-22T19:33:58;20.10;63.90
69990;DHT22;57331;52.054;5.294;2023-06-22T19:36:30;20.70;76.10
69990;DHT22;57331;52.054;5.294;2023-06-22T19:43:52;18.60;75.00
69990;DHT22;57331;52.054;5.294;2023-06-22T19:46:28;18.60;75.30
69990;DHT22;57331;52.054;5.294;2023-06-22T19:48:57;19.00;75.40
69990;DHT22;57331;52.054;5.294;2023-06-22T19:51:34;21.40;76.40